createdAt,value
2023-01-12T00:00:37.421Z,0.00
2023-01-12T00:01:37.301Z,0.00
2023-01-12T00:02:37.363Z,0.00
2023-01-12T00:03:37.307Z,0.00
2023-01-12T00:04:37.448Z,0.00
2023-01-12T00:05:37.287Z,0.00
2023-01-12T00:06:37.267Z,0.00
2023-01-12T00:07:37.254Z,0.00
2023-01-12T00:08:37.271Z,0.00
2023-01-12T00:09:37.225Z,0.00
2023-01-12T00:10:37.470Z,0.00
2023-01-12T00:11:37.215Z,0.00
2023-01-12T00:12:37.204Z,0.00
2023-01-12T00:13:37.215Z,0.00
2023-01-12T00:14:37.170Z,0.00
2023-01-12T00:15:37.153Z,0.00
2023-01-12T00:16:37.468Z,0.00
2023-01-12T00:17:37.196Z,0.00
2023-01-12T00:18:37.147Z,0.00
2023-01-12T00:19:37.124Z,0.00
2023-01-12T00:20:37.183Z,0.00
2023-01-12T00:21:37.113Z,0.00
2023-01-12T00:22:37.236Z,0.00
2023-01-12T00:23:37.113Z,0.00
2023-01-12T00:24:37.069Z,0.00
2023-01-12T00:25:37.064Z,0.00
2023-01-12T00:26:37.060Z,0.00
2023-01-12T00:27:37.057Z,0.00
2023-01-12T00:28:37.190Z,0.00
2023-01-12T00:29:37.030Z,0.00
2023-01-12T00:30:37.019Z,0.00
2023-01-12T00:31:37.113Z,0.00
2023-01-12T00:32:36.999Z,0.00
2023-01-12T00:33:36.970Z,0.00
2023-01-12T00:34:37.105Z,0.00
2023-01-12T00:35:36.963Z,0.00
2023-01-12T00:36:36.973Z,0.00
2023-01-12T00:37:37.001Z,0.00
2023-01-12T00:38:36.950Z,0.00
2023-01-12T00:39:40.395Z,0.00
2023-01-12T00:40:37.047Z,0.00
2023-01-12T00:41:36.965Z,0.00
2023-01-12T00:42:36.881Z,0.00
2023-01-12T00:43:36.888Z,0.00
2023-01-12T00:44:36.904Z,0.00
2023-01-12T00:45:36.868Z,0.00
2023-01-12T00:46:37.100Z,0.00
2023-01-12T00:47:36.888Z,0.00
2023-01-12T00:48:36.820Z,0.00
2023-01-12T00:49:36.813Z,0.00
2023-01-12T00:50:36.817Z,0.00
2023-01-12T00:51:36.798Z,0.00
2023-01-12T00:52:36.985Z,0.00
2023-01-12T00:53:36.779Z,0.00
2023-01-12T00:54:36.742Z,0.00
2023-01-12T00:55:36.732Z,0.00
2023-01-12T00:56:36.727Z,0.00
2023-01-12T00:57:36.756Z,0.00
2023-01-12T00:58:36.893Z,0.00
2023-01-12T00:59:36.704Z,0.00
2023-01-12T01:00:36.678Z,0.00
2023-01-12T01:01:36.775Z,0.00
2023-01-12T01:02:36.746Z,0.00
2023-01-12T01:03:36.663Z,0.00
2023-01-12T01:04:36.692Z,0.00
2023-01-12T01:05:36.658Z,0.00
2023-01-12T01:06:36.627Z,0.00
2023-01-12T01:07:36.630Z,0.00
2023-01-12T01:08:36.633Z,0.00
2023-01-12T01:09:36.641Z,0.00
2023-01-12T01:10:36.846Z,0.00
2023-01-12T01:11:36.566Z,0.00
2023-01-12T01:12:36.556Z,0.00
2023-01-12T01:13:36.561Z,0.00
2023-01-12T01:14:36.544Z,0.00
2023-01-12T01:15:36.656Z,0.00
2023-01-12T01:16:37.172Z,0.00
2023-01-12T01:17:36.505Z,0.00
2023-01-12T01:18:36.497Z,0.00
2023-01-12T01:19:36.505Z,0.00
2023-01-12T01:20:36.478Z,0.00
2023-01-12T01:21:36.463Z,0.00
2023-01-12T01:22:36.599Z,0.00
2023-01-12T01:23:36.436Z,0.00
2023-01-12T01:24:36.443Z,0.00
2023-01-12T01:25:36.418Z,0.00
2023-01-12T01:26:36.413Z,0.00
2023-01-12T01:27:36.399Z,0.00
2023-01-12T01:28:36.608Z,0.00
2023-01-12T01:29:36.405Z,0.00
2023-01-12T01:30:36.368Z,0.00
2023-01-12T01:31:36.409Z,0.00
2023-01-12T01:32:36.357Z,0.00
2023-01-12T01:33:36.387Z,0.00
2023-01-12T01:34:36.472Z,0.00
2023-01-12T01:35:36.367Z,0.00
2023-01-12T01:36:36.301Z,0.00
2023-01-12T01:37:36.328Z,0.00
2023-01-12T01:38:36.278Z,0.00
2023-01-12T01:39:36.265Z,0.00
2023-01-12T01:40:36.399Z,0.00
2023-01-12T01:41:36.297Z,0.00
2023-01-12T01:42:36.253Z,0.00
2023-01-12T01:43:36.242Z,0.00
2023-01-12T01:44:36.252Z,0.00
2023-01-12T01:45:36.241Z,0.00
2023-01-12T01:46:36.447Z,0.00
2023-01-12T01:47:36.197Z,0.00
2023-01-12T01:48:36.186Z,0.00
2023-01-12T01:49:36.165Z,0.00
2023-01-12T01:50:36.156Z,0.00
2023-01-12T01:51:36.159Z,0.00
2023-01-12T01:52:36.269Z,0.00
2023-01-12T01:53:36.143Z,0.00
2023-01-12T01:54:36.163Z,0.00
2023-01-12T01:55:36.104Z,0.00
2023-01-12T01:56:36.129Z,0.00
2023-01-12T01:57:36.090Z,0.00
2023-01-12T01:58:36.323Z,0.00
2023-01-12T01:59:36.195Z,0.00
2023-01-12T02:00:36.058Z,0.00
2023-01-12T02:01:36.221Z,0.00
2023-01-12T02:02:36.167Z,0.00
2023-01-12T02:03:36.940Z,0.00
2023-01-12T02:04:36.212Z,0.00
2023-01-12T02:05:36.009Z,0.00
2023-01-12T02:06:35.991Z,0.00
2023-01-12T02:07:35.978Z,0.00
2023-01-12T02:08:35.987Z,0.00
2023-01-12T02:09:35.978Z,0.00
2023-01-12T02:10:36.081Z,0.00
2023-01-12T02:11:36.179Z,0.00
2023-01-12T02:12:35.930Z,0.00
2023-01-12T02:13:35.912Z,0.00
2023-01-12T02:14:35.909Z,0.00
2023-01-12T02:15:35.905Z,0.00
2023-01-12T02:16:36.194Z,0.00
2023-01-12T02:17:35.881Z,0.00
2023-01-12T02:18:35.872Z,0.00
2023-01-12T02:19:35.897Z,0.00
2023-01-12T02:20:35.851Z,0.00
2023-01-12T02:21:35.849Z,0.00
2023-01-12T02:22:36.013Z,0.00
2023-01-12T02:23:35.807Z,0.00
2023-01-12T02:24:35.800Z,0.00
2023-01-12T02:25:35.847Z,0.00
2023-01-12T02:26:35.771Z,0.00
2023-01-12T02:27:35.764Z,0.00
2023-01-12T02:28:35.896Z,0.00
2023-01-12T02:29:35.764Z,0.00
2023-01-12T02:30:35.744Z,0.00
2023-01-12T02:31:35.770Z,0.00
2023-01-12T02:32:35.755Z,0.00
2023-01-12T02:33:35.716Z,0.00
2023-01-12T02:34:35.846Z,0.00
2023-01-12T02:35:35.746Z,0.00
2023-01-12T02:36:35.706Z,0.00
2023-01-12T02:37:35.716Z,0.00
2023-01-12T02:38:35.651Z,0.00
2023-01-12T02:39:38.229Z,0.00
2023-01-12T02:40:35.782Z,0.00
2023-01-12T02:41:35.638Z,0.00
2023-01-12T02:42:35.620Z,0.00
2023-01-12T02:43:35.590Z,0.00
2023-01-12T02:44:35.593Z,0.00
2023-01-12T02:45:35.594Z,0.00
2023-01-12T02:46:35.782Z,0.00
2023-01-12T02:47:35.560Z,0.00
2023-01-12T02:48:35.567Z,0.00
2023-01-12T02:49:35.534Z,0.00
2023-01-12T02:50:35.582Z,0.00
2023-01-12T02:51:35.522Z,0.00
2023-01-12T02:52:35.665Z,0.00
2023-01-12T02:53:35.487Z,0.00
2023-01-12T02:54:35.494Z,0.00
2023-01-12T02:55:35.540Z,0.00
2023-01-12T02:56:35.475Z,0.00
2023-01-12T02:57:35.452Z,0.00
2023-01-12T02:58:35.633Z,0.00
2023-01-12T02:59:35.464Z,0.00
2023-01-12T03:00:35.522Z,0.00
2023-01-12T03:01:35.490Z,0.00
2023-01-12T03:02:35.479Z,0.00
2023-01-12T03:03:35.448Z,0.00
2023-01-12T03:04:35.569Z,0.00
2023-01-12T03:05:35.357Z,0.00
2023-01-12T03:06:35.393Z,0.00
2023-01-12T03:07:35.416Z,0.00
2023-01-12T03:08:35.331Z,0.00
2023-01-12T03:09:35.363Z,0.00
2023-01-12T03:10:35.459Z,0.00
2023-01-12T03:11:35.299Z,0.00
2023-01-12T03:12:35.301Z,0.00
2023-01-12T03:13:35.299Z,0.00
2023-01-12T03:14:35.266Z,0.00
2023-01-12T03:15:35.265Z,0.00
2023-01-12T03:16:35.385Z,0.00
2023-01-12T03:17:35.283Z,0.00
2023-01-12T03:18:35.281Z,0.00
2023-01-12T03:19:35.241Z,0.00
2023-01-12T03:20:35.228Z,0.00
2023-01-12T03:21:35.213Z,0.00
2023-01-12T03:22:36.344Z,0.00
2023-01-12T03:23:35.182Z,0.00
2023-01-12T03:24:35.178Z,0.00
2023-01-12T03:25:35.159Z,0.00
2023-01-12T03:26:35.184Z,0.00
2023-01-12T03:27:35.135Z,0.00
2023-01-12T03:28:35.287Z,0.00
2023-01-12T03:29:35.138Z,0.00
2023-01-12T03:30:35.104Z,0.00
2023-01-12T03:31:35.228Z,0.00
2023-01-12T03:32:35.089Z,0.00
2023-01-12T03:33:35.084Z,0.00
2023-01-12T03:34:35.267Z,0.00
2023-01-12T03:35:35.066Z,0.00
2023-01-12T03:36:35.068Z,0.00
2023-01-12T03:37:35.025Z,0.00
2023-01-12T03:38:35.059Z,0.00
2023-01-12T03:39:35.043Z,0.00
2023-01-12T03:40:35.162Z,0.00
2023-01-12T03:41:34.999Z,0.00
2023-01-12T03:42:34.972Z,0.00
2023-01-12T03:43:34.971Z,0.00
2023-01-12T03:44:34.990Z,0.00
2023-01-12T03:45:34.961Z,0.00
2023-01-12T03:46:35.141Z,0.00
2023-01-12T03:47:34.932Z,0.00
2023-01-12T03:48:34.917Z,0.00
2023-01-12T03:49:34.895Z,0.00
2023-01-12T03:50:34.982Z,0.00
2023-01-12T03:51:34.892Z,0.00
2023-01-12T03:52:35.027Z,0.00
2023-01-12T03:53:34.861Z,0.00
2023-01-12T03:54:34.890Z,0.00
2023-01-12T03:55:34.892Z,0.00
2023-01-12T03:56:34.843Z,0.00
2023-01-12T03:57:34.825Z,0.00
2023-01-12T03:58:34.979Z,0.00
2023-01-12T03:59:34.796Z,0.00
2023-01-12T04:00:34.783Z,0.00
2023-01-12T04:01:34.919Z,0.00
2023-01-12T04:02:34.765Z,0.00
2023-01-12T04:03:34.883Z,0.00
2023-01-12T04:04:34.921Z,0.00
2023-01-12T04:05:34.745Z,0.00
2023-01-12T04:06:34.758Z,0.00
2023-01-12T04:07:34.767Z,0.00
2023-01-12T04:08:34.713Z,0.00
2023-01-12T04:09:34.831Z,0.00
2023-01-12T04:10:35.160Z,0.00
2023-01-12T04:11:34.740Z,0.00
2023-01-12T04:12:34.697Z,0.00
2023-01-12T04:13:34.670Z,0.00
2023-01-12T04:14:34.681Z,0.00
2023-01-12T04:15:34.681Z,0.00
2023-01-12T04:16:34.789Z,0.00
2023-01-12T04:17:34.614Z,0.00
2023-01-12T04:18:34.671Z,0.00
2023-01-12T04:19:34.578Z,0.00
2023-01-12T04:20:34.674Z,0.00
2023-01-12T04:21:34.600Z,0.00
2023-01-12T04:22:34.871Z,0.00
2023-01-12T04:23:34.545Z,0.00
2023-01-12T04:24:34.550Z,0.00
2023-01-12T04:25:34.535Z,0.00
2023-01-12T04:26:34.581Z,0.00
2023-01-12T04:27:34.497Z,0.00
2023-01-12T04:28:34.744Z,0.00
2023-01-12T04:29:34.528Z,0.00
2023-01-12T04:30:34.525Z,0.00
2023-01-12T04:31:34.507Z,0.00
2023-01-12T04:32:34.469Z,0.00
2023-01-12T04:33:34.468Z,0.00
2023-01-12T04:34:34.605Z,0.00
2023-01-12T04:35:34.464Z,0.00
2023-01-12T04:36:34.406Z,0.00
2023-01-12T04:37:35.157Z,0.00
2023-01-12T04:38:34.394Z,0.00
2023-01-12T04:39:34.388Z,0.00
2023-01-12T04:40:34.614Z,0.00
2023-01-12T04:41:34.382Z,0.00
2023-01-12T04:42:34.346Z,0.00
2023-01-12T04:43:34.420Z,0.00
2023-01-12T04:44:34.402Z,0.00
2023-01-12T04:45:34.345Z,0.00
2023-01-12T04:46:34.469Z,0.00
2023-01-12T04:47:34.321Z,0.00
2023-01-12T04:48:34.295Z,0.00
2023-01-12T04:49:34.319Z,0.00
2023-01-12T04:50:34.259Z,0.00
2023-01-12T04:51:34.274Z,0.00
2023-01-12T04:52:34.391Z,0.00
2023-01-12T04:53:34.275Z,0.00
2023-01-12T04:54:34.218Z,0.00
2023-01-12T04:55:34.245Z,0.00
2023-01-12T04:56:34.225Z,0.00
2023-01-12T04:57:34.190Z,0.00
2023-01-12T04:58:34.336Z,0.00
2023-01-12T04:59:34.155Z,0.00
2023-01-12T05:00:34.164Z,0.00
2023-01-12T05:01:34.287Z,0.00
2023-01-12T05:02:34.136Z,0.00
2023-01-12T05:03:34.129Z,0.00
2023-01-12T05:04:34.318Z,0.00
2023-01-12T05:05:34.160Z,0.00
2023-01-12T05:06:34.091Z,0.00
2023-01-12T05:07:34.103Z,0.00
2023-01-12T05:08:34.112Z,0.00
2023-01-12T05:09:34.080Z,0.00
2023-01-12T05:10:34.208Z,0.00
2023-01-12T05:11:34.036Z,0.00
2023-01-12T05:12:34.037Z,0.00
2023-01-12T05:13:34.058Z,0.00
2023-01-12T05:19:00.387Z,0.00
2023-01-12T05:20:01.365Z,0.00
2023-01-12T05:21:01.864Z,0.00
2023-01-12T05:22:01.236Z,0.00
2023-01-12T05:23:01.218Z,0.00
2023-01-12T05:24:01.292Z,0.00
2023-01-12T05:25:01.316Z,3.00
2023-01-12T05:26:01.278Z,3.00
2023-01-12T05:27:01.133Z,3.00
2023-01-12T05:28:01.130Z,3.00
2023-01-12T05:29:01.100Z,3.00
2023-01-12T05:30:01.275Z,3.00
2023-01-12T05:31:01.120Z,3.00
2023-01-12T05:32:01.084Z,3.00
2023-01-12T05:33:01.071Z,3.00
2023-01-12T05:34:01.083Z,3.00
2023-01-12T05:35:01.079Z,2.00
2023-01-12T05:36:01.223Z,0.00
2023-01-12T05:37:01.076Z,0.00
2023-01-12T05:38:01.061Z,0.00
2023-01-12T05:39:01.050Z,0.00
2023-01-12T05:40:01.063Z,0.00
2023-01-12T05:41:01.077Z,0.00
2023-01-12T05:42:01.163Z,0.00
2023-01-12T05:43:01.016Z,0.00
2023-01-12T05:44:01.009Z,0.00
2023-01-12T05:45:00.997Z,0.00
2023-01-12T05:46:01.062Z,0.00
2023-01-12T05:47:00.966Z,0.00
2023-01-12T05:48:01.088Z,0.00
2023-01-12T05:49:00.963Z,0.00
2023-01-12T05:50:00.940Z,0.00
2023-01-12T05:51:00.936Z,0.00
2023-01-12T05:52:00.936Z,0.00
2023-01-12T05:53:00.906Z,0.00
2023-01-12T05:54:01.025Z,0.00
2023-01-12T05:55:00.908Z,0.00
2023-01-12T05:56:00.883Z,0.00
2023-01-12T05:57:00.872Z,0.00
2023-01-12T05:58:00.854Z,0.00
2023-01-12T05:59:00.840Z,0.00
2023-01-12T06:00:01.013Z,0.00
2023-01-12T06:01:00.847Z,0.00
2023-01-12T06:02:00.880Z,0.00
2023-01-12T06:03:00.790Z,1.00
2023-01-12T06:04:00.749Z,1.00
2023-01-12T06:05:00.849Z,1.00
2023-01-12T06:06:00.864Z,1.00
2023-01-12T06:07:00.730Z,1.00
2023-01-12T06:08:00.739Z,1.00
2023-01-12T06:09:00.769Z,0.00
2023-01-12T06:10:00.739Z,0.00
2023-01-12T06:11:00.734Z,0.00
2023-01-12T06:12:00.941Z,0.00
2023-01-12T06:13:00.695Z,0.00
2023-01-12T06:14:00.664Z,1.00
2023-01-12T06:15:00.620Z,1.00
2023-01-12T06:16:00.688Z,0.00
2023-01-12T06:17:00.613Z,1.00
2023-01-12T06:18:00.719Z,1.00
2023-01-12T06:19:00.576Z,1.00
2023-01-12T06:20:00.567Z,1.00
2023-01-12T06:21:00.567Z,1.00
2023-01-12T06:22:00.551Z,1.00
2023-01-12T06:23:00.547Z,1.00
2023-01-12T06:24:00.685Z,2.00
2023-01-12T06:25:00.529Z,1.00
2023-01-12T06:26:00.512Z,2.00
2023-01-12T06:27:00.496Z,1.00
2023-01-12T06:28:00.497Z,2.00
2023-01-12T06:29:00.481Z,2.00
2023-01-12T06:30:00.744Z,2.00
2023-01-12T06:31:00.512Z,2.00
2023-01-12T06:32:00.440Z,2.00
2023-01-12T06:33:00.481Z,2.00
2023-01-12T06:34:00.446Z,2.00
2023-01-12T06:35:07.033Z,2.00
2023-01-12T06:36:00.553Z,2.00
2023-01-12T06:37:00.383Z,1.00
2023-01-12T06:38:00.376Z,1.00
2023-01-12T06:39:00.362Z,1.00
2023-01-12T06:40:00.360Z,1.00
2023-01-12T06:41:00.350Z,2.00
2023-01-12T06:42:00.739Z,1.00
2023-01-12T06:43:00.633Z,2.00
2023-01-12T06:44:00.337Z,2.00
2023-01-12T06:45:00.348Z,1.00
2023-01-12T06:46:00.360Z,1.00
2023-01-12T06:47:00.278Z,2.00
2023-01-12T06:48:00.439Z,1.00
2023-01-12T06:49:00.267Z,1.00
2023-01-12T06:50:00.272Z,1.00
2023-01-12T06:51:00.236Z,1.00
2023-01-12T06:52:00.233Z,2.00
2023-01-12T06:53:00.243Z,1.00
2023-01-12T06:54:00.343Z,2.00
2023-01-12T06:55:00.199Z,2.00
2023-01-12T06:56:00.211Z,1.00
2023-01-12T06:57:00.171Z,1.00
2023-01-12T06:58:00.168Z,1.00
2023-01-12T06:59:00.162Z,1.00
2023-01-12T07:00:00.287Z,1.00
2023-01-12T07:01:00.174Z,1.00
2023-01-12T07:02:00.238Z,3.00
2023-01-12T07:03:00.174Z,0.00
2023-01-12T07:04:00.167Z,0.00
2023-01-12T07:05:00.156Z,0.00
2023-01-12T07:06:00.344Z,0.00
2023-01-12T07:07:00.149Z,0.00
2023-01-12T07:08:00.156Z,0.00
2023-01-12T07:09:00.104Z,0.00
2023-01-12T07:10:00.140Z,0.00
2023-01-12T07:11:00.085Z,0.00
2023-01-12T07:12:00.208Z,0.00
2023-01-12T07:13:00.007Z,1.00
2023-01-12T07:14:00.053Z,0.00
2023-01-12T07:14:59.999Z,1.00
2023-01-12T07:16:00.126Z,1.00
2023-01-12T07:17:00.032Z,1.00
2023-01-12T07:18:00.103Z,1.00
2023-01-12T07:19:00.043Z,0.00
2023-01-12T07:20:00.043Z,0.00
2023-01-12T07:21:00.029Z,0.00
2023-01-12T07:22:00.051Z,2.00
2023-01-12T07:22:59.948Z,2.00
2023-01-12T07:24:00.071Z,2.00
2023-01-12T07:24:59.893Z,2.00
2023-01-12T07:25:59.893Z,2.00
2023-01-12T07:26:59.862Z,2.00
2023-01-12T07:27:59.869Z,1.00
2023-01-12T07:28:59.874Z,1.00
2023-01-12T07:29:59.999Z,2.00
2023-01-12T07:30:59.858Z,2.00
2023-01-12T07:31:59.836Z,3.00
2023-01-12T07:32:59.817Z,3.00
2023-01-12T07:33:59.807Z,1.00
2023-01-12T07:34:59.803Z,1.00
2023-01-12T07:36:00.042Z,3.00
2023-01-12T07:36:59.761Z,1.00
2023-01-12T07:37:59.747Z,2.00
2023-01-12T07:38:59.736Z,1.00
2023-01-12T07:39:59.745Z,4.00
2023-01-12T07:40:59.709Z,4.00
2023-01-12T07:41:59.866Z,6.00
2023-01-12T07:42:59.733Z,4.00
2023-01-12T07:43:59.715Z,3.00
2023-01-12T07:44:59.686Z,4.00
2023-01-12T07:45:59.696Z,4.00
2023-01-12T07:46:59.695Z,2.00
2023-01-12T07:47:59.857Z,2.00
2023-01-12T07:48:59.651Z,7.00
2023-01-12T07:49:59.645Z,8.00
2023-01-12T07:50:59.623Z,5.00
2023-01-12T07:51:59.616Z,6.00
2023-01-12T07:52:59.590Z,4.00
2023-01-12T07:53:59.724Z,4.00
2023-01-12T07:54:59.643Z,3.00
2023-01-12T07:55:59.612Z,5.00
2023-01-12T07:56:59.566Z,8.00
2023-01-12T07:57:59.542Z,10.00
2023-01-12T07:58:59.526Z,8.00
2023-01-12T07:59:59.649Z,13.00
2023-01-12T08:00:59.585Z,6.00
2023-01-12T08:01:59.567Z,9.00
2023-01-12T08:02:59.489Z,5.00
2023-01-12T08:03:59.472Z,7.00
2023-01-12T08:04:59.471Z,2.00
2023-01-12T08:05:59.593Z,1.00
2023-01-12T08:06:59.439Z,1.00
2023-01-12T08:07:59.424Z,4.00
2023-01-12T08:08:59.425Z,5.00
2023-01-12T08:09:59.421Z,6.00
2023-01-12T08:10:59.402Z,3.00
2023-01-12T08:11:59.539Z,8.00
2023-01-12T08:12:59.376Z,7.00
2023-01-12T08:13:59.382Z,9.00
2023-01-12T08:14:59.356Z,15.00
2023-01-12T08:15:59.365Z,15.00
2023-01-12T08:17:00.300Z,15.00
2023-01-12T08:17:59.475Z,15.00
2023-01-12T08:18:59.313Z,9.00
2023-01-12T08:19:59.328Z,7.00
2023-01-12T08:20:59.288Z,9.00
2023-01-12T08:21:59.278Z,9.00
2023-01-12T08:22:59.294Z,8.00
2023-01-12T08:23:59.413Z,9.00
2023-01-12T08:24:59.253Z,6.00
2023-01-12T08:25:59.259Z,4.00
2023-01-12T08:26:59.231Z,3.00
2023-01-12T08:27:59.212Z,3.00
2023-01-12T08:28:59.220Z,7.00
2023-01-12T08:29:59.373Z,5.00
2023-01-12T08:30:59.281Z,6.00
2023-01-12T08:31:59.675Z,6.00
2023-01-12T08:32:59.188Z,13.00
2023-01-12T08:33:59.150Z,10.00
2023-01-12T08:35:00.324Z,16.00
2023-01-12T08:35:59.320Z,18.00
2023-01-12T08:36:59.123Z,21.00
2023-01-12T08:37:59.114Z,15.00
2023-01-12T08:38:59.126Z,15.00
2023-01-12T08:39:59.098Z,7.00
2023-01-12T08:40:59.094Z,7.00
2023-01-12T08:41:59.349Z,7.00
2023-01-12T08:42:59.063Z,5.00
2023-01-12T08:43:59.047Z,5.00
2023-01-12T08:44:59.068Z,7.00
2023-01-12T08:45:59.021Z,7.00
2023-01-12T08:46:59.099Z,7.00
2023-01-12T08:47:59.174Z,7.00
2023-01-12T08:48:59.012Z,15.00
2023-01-12T08:49:58.998Z,15.00
2023-01-12T08:50:59.036Z,15.00
2023-01-12T08:51:58.985Z,14.00
2023-01-12T08:52:58.957Z,12.00
2023-01-12T08:53:59.156Z,12.00
2023-01-12T08:54:59.023Z,11.00
2023-01-12T08:55:58.964Z,12.00
2023-01-12T08:56:58.923Z,12.00
2023-01-12T08:57:58.914Z,15.00
2023-01-12T08:58:58.953Z,11.00
2023-01-12T08:59:59.039Z,15.00
2023-01-12T09:00:59.018Z,20.00
2023-01-12T09:01:58.964Z,18.00
2023-01-12T09:02:58.907Z,17.00
2023-01-12T09:03:58.847Z,16.00
2023-01-12T09:04:58.858Z,17.00
2023-01-12T09:05:59.038Z,25.00
2023-01-12T09:07:00.206Z,22.00
2023-01-12T09:07:58.804Z,25.00
2023-01-12T09:08:58.790Z,29.00
2023-01-12T09:09:58.777Z,29.00
2023-01-12T09:10:58.797Z,32.00
2023-01-12T09:11:58.914Z,26.00
2023-01-12T09:12:58.793Z,31.00
2023-01-12T09:13:58.791Z,27.00
2023-01-12T09:14:58.740Z,28.00
2023-01-12T09:16:11.588Z,28.00
2023-01-12T09:16:58.758Z,30.00
2023-01-12T09:17:58.832Z,31.00
2023-01-12T09:18:58.708Z,29.00
2023-01-12T09:19:58.690Z,25.00
2023-01-12T09:20:58.666Z,21.00
2023-01-12T09:21:58.643Z,14.00
2023-01-12T09:22:58.655Z,13.00
2023-01-12T09:23:58.851Z,16.00
2023-01-12T09:24:58.625Z,18.00
2023-01-12T09:25:58.642Z,18.00
2023-01-12T09:26:58.668Z,18.00
2023-01-12T09:27:58.585Z,18.00
2023-01-12T09:28:58.596Z,17.00
2023-01-12T09:29:58.736Z,12.00
2023-01-12T09:30:58.576Z,10.00
2023-01-12T09:31:58.584Z,12.00
2023-01-12T09:32:58.559Z,11.00
2023-01-12T09:33:58.553Z,20.00
2023-01-12T09:34:58.678Z,20.00
2023-01-12T09:35:58.753Z,20.00
2023-01-12T09:36:58.496Z,23.00
2023-01-12T09:37:58.496Z,20.00
2023-01-12T09:38:58.522Z,20.00
2023-01-12T09:39:58.476Z,27.00
2023-01-12T09:40:59.738Z,24.00
2023-01-12T09:41:58.606Z,19.00
2023-01-12T09:42:58.432Z,14.00
2023-01-12T09:43:58.465Z,14.00
2023-01-12T09:44:58.407Z,18.00
2023-01-12T09:45:58.502Z,16.00
2023-01-12T09:46:58.404Z,12.00
2023-01-12T09:47:58.750Z,19.00
2023-01-12T09:48:58.387Z,16.00
2023-01-12T09:50:08.051Z,12.00
2023-01-12T09:50:58.358Z,16.00
2023-01-12T09:51:58.368Z,18.00
2023-01-12T09:52:58.335Z,21.00
2023-01-12T09:53:58.497Z,17.00
2023-01-12T09:54:58.357Z,25.00
2023-01-12T09:55:58.395Z,18.00
2023-01-12T09:56:58.349Z,16.00
2023-01-12T09:57:58.271Z,20.00
2023-01-12T09:58:58.300Z,21.00
2023-01-12T09:59:58.493Z,22.00
2023-01-12T10:00:58.374Z,22.00
2023-01-12T10:01:58.353Z,17.00
2023-01-12T10:02:58.350Z,15.00
2023-01-12T10:03:58.256Z,10.00
2023-01-12T10:04:58.247Z,10.00
2023-01-12T10:05:58.374Z,8.00
2023-01-12T10:06:58.195Z,8.00
2023-01-12T10:07:58.183Z,10.00
2023-01-12T10:08:58.220Z,10.00
2023-01-12T10:09:58.137Z,10.00
2023-01-12T10:10:58.174Z,9.00
2023-01-12T10:11:58.286Z,10.00
2023-01-12T10:12:59.982Z,11.00
2023-01-12T10:13:58.106Z,10.00
2023-01-12T10:14:58.125Z,11.00
2023-01-12T10:15:58.093Z,9.00
2023-01-12T10:16:58.083Z,5.00
2023-01-12T10:17:58.222Z,9.00
2023-01-12T10:18:58.070Z,9.00
2023-01-12T10:19:58.039Z,9.00
2023-01-12T10:20:58.082Z,7.00
2023-01-12T10:21:58.030Z,5.00
2023-01-12T10:22:58.089Z,7.00
2023-01-12T10:23:58.209Z,5.00
2023-01-12T10:24:57.996Z,7.00
2023-01-12T10:25:57.986Z,7.00
2023-01-12T10:26:57.972Z,7.00
2023-01-12T10:27:57.965Z,15.00
2023-01-12T10:28:57.974Z,15.00
2023-01-12T10:29:58.105Z,9.00
2023-01-12T10:30:57.988Z,14.00
2023-01-12T10:31:58.003Z,13.00
2023-01-12T10:32:57.991Z,15.00
2023-01-12T10:33:57.939Z,7.00
2023-01-12T10:34:57.902Z,5.00
2023-01-12T10:35:58.041Z,5.00
2023-01-12T10:36:57.889Z,11.00
2023-01-12T10:37:57.855Z,10.00
2023-01-12T10:38:57.868Z,6.00
2023-01-12T10:39:57.865Z,4.00
2023-01-12T10:40:57.824Z,4.00
2023-01-12T10:41:57.841Z,4.00
2023-01-12T10:42:57.824Z,5.00
2023-01-12T10:43:57.789Z,6.00
2023-01-12T10:44:57.781Z,10.00
2023-01-12T10:45:57.848Z,10.00
2023-01-12T10:46:57.763Z,10.00
2023-01-12T10:47:57.871Z,9.00
2023-01-12T10:48:57.754Z,7.00
2023-01-12T10:49:57.721Z,3.00
2023-01-12T10:50:57.717Z,5.00
2023-01-12T10:51:57.700Z,7.00
2023-01-12T10:52:57.693Z,15.00
2023-01-12T10:53:57.967Z,15.00
2023-01-12T10:54:58.969Z,13.00
2023-01-12T10:55:57.655Z,10.00
2023-01-12T10:56:57.676Z,9.00
2023-01-12T10:57:57.640Z,7.00
2023-01-12T10:58:57.710Z,5.00
2023-01-12T10:59:57.812Z,11.00
2023-01-12T11:00:57.771Z,16.00
2023-01-12T11:01:57.772Z,12.00
2023-01-12T11:02:57.726Z,12.00
2023-01-12T11:03:57.571Z,14.00
2023-01-12T11:04:57.577Z,14.00
2023-01-12T11:05:57.762Z,12.00
2023-01-12T11:06:57.627Z,13.00
2023-01-12T11:07:57.546Z,14.00
2023-01-12T11:08:57.559Z,13.00
2023-01-12T11:09:57.530Z,15.00
2023-01-12T11:10:57.555Z,9.00
2023-01-12T11:11:57.654Z,11.00
2023-01-12T11:12:57.544Z,11.00
2023-01-12T11:13:57.471Z,10.00
2023-01-12T11:14:57.473Z,6.00
2023-01-12T11:15:57.451Z,9.00
2023-01-12T11:16:57.581Z,7.00
2023-01-12T11:17:57.567Z,7.00
2023-01-12T11:18:57.472Z,7.00
2023-01-12T11:19:57.464Z,7.00
2023-01-12T11:20:57.511Z,6.00
2023-01-12T11:21:57.400Z,4.00
2023-01-12T11:22:57.394Z,7.00
2023-01-12T11:23:57.538Z,5.00
2023-01-12T11:24:57.356Z,9.00
2023-01-12T11:25:57.364Z,15.00
2023-01-12T11:26:57.370Z,9.00
2023-01-12T11:27:57.356Z,7.00
2023-01-12T11:28:57.349Z,7.00
2023-01-12T11:29:57.438Z,7.00
2023-01-12T11:30:57.311Z,14.00
2023-01-12T11:31:57.412Z,13.00
2023-01-12T11:32:57.269Z,13.00
2023-01-12T11:33:57.267Z,13.00
2023-01-12T11:34:57.303Z,13.00
2023-01-12T11:35:57.444Z,11.00
2023-01-12T11:36:57.247Z,12.00
2023-01-12T11:37:57.217Z,13.00
2023-01-12T11:38:57.212Z,14.00
2023-01-12T11:39:57.243Z,13.00
2023-01-12T11:40:57.190Z,11.00
2023-01-12T11:41:57.327Z,10.00
2023-01-12T11:42:57.176Z,9.00
2023-01-12T11:43:57.149Z,7.00
2023-01-12T11:44:57.155Z,15.00
2023-01-12T11:45:57.169Z,15.00
2023-01-12T11:46:57.150Z,15.00
2023-01-12T11:47:57.284Z,11.00
2023-01-12T11:48:57.104Z,10.00
2023-01-12T11:49:57.093Z,7.00
2023-01-12T11:50:57.123Z,7.00
2023-01-12T11:51:57.102Z,4.00
2023-01-12T11:52:57.052Z,4.00
2023-01-12T11:53:57.196Z,4.00
2023-01-12T11:54:57.135Z,3.00
2023-01-12T11:55:57.048Z,6.00
2023-01-12T11:56:57.025Z,5.00
2023-01-12T11:57:57.043Z,8.00
2023-01-12T11:58:57.005Z,8.00
2023-01-12T11:59:57.274Z,8.00
2023-01-12T12:00:57.051Z,8.00
2023-01-12T12:01:57.072Z,8.00
2023-01-12T12:02:56.971Z,7.00
2023-01-12T12:03:57.005Z,5.00
2023-01-12T12:04:56.931Z,5.00
2023-01-12T12:05:57.084Z,5.00
2023-01-12T12:06:56.992Z,5.00
2023-01-12T12:07:56.902Z,8.00
2023-01-12T12:08:56.954Z,10.00
2023-01-12T12:09:56.890Z,8.00
2023-01-12T12:10:56.864Z,8.00
2023-01-12T12:11:57.013Z,8.00
2023-01-12T12:12:56.890Z,8.00
2023-01-12T12:13:56.841Z,5.00
2023-01-12T12:14:56.859Z,3.00
2023-01-12T12:15:56.877Z,5.00
2023-01-12T12:16:56.797Z,5.00
2023-01-12T12:17:56.953Z,7.00
2023-01-12T12:18:56.974Z,9.00
2023-01-12T12:19:56.770Z,9.00
2023-01-12T12:20:56.816Z,9.00
2023-01-12T12:21:56.754Z,13.00
2023-01-12T12:22:56.754Z,11.00
2023-01-12T12:23:56.876Z,11.00
2023-01-12T12:24:56.758Z,11.00
2023-01-12T12:25:56.721Z,13.00
2023-01-12T12:26:56.697Z,12.00
2023-01-12T12:27:56.696Z,13.00
2023-01-12T12:28:56.674Z,9.00
2023-01-12T12:29:56.834Z,8.00
2023-01-12T12:30:56.690Z,11.00
2023-01-12T12:31:56.668Z,10.00
2023-01-12T12:32:56.692Z,5.00
2023-01-12T12:33:56.646Z,7.00
2023-01-12T12:34:56.610Z,7.00
2023-01-12T12:35:56.770Z,6.00
2023-01-12T12:36:56.598Z,5.00
2023-01-12T12:37:56.631Z,5.00
2023-01-12T12:38:56.578Z,5.00
2023-01-12T12:39:56.578Z,4.00
2023-01-12T12:40:56.556Z,2.00
2023-01-12T12:41:56.737Z,2.00
2023-01-12T12:42:56.570Z,2.00
2023-01-12T12:43:56.581Z,2.00
2023-01-12T12:44:56.522Z,4.00
2023-01-12T12:45:56.540Z,4.00
2023-01-12T12:46:56.501Z,4.00
2023-01-12T12:47:56.636Z,3.00
2023-01-12T12:48:56.475Z,3.00
2023-01-12T12:49:56.456Z,7.00
2023-01-12T12:50:56.549Z,6.00
2023-01-12T12:51:56.444Z,4.00
2023-01-12T12:52:56.417Z,4.00
2023-01-12T12:53:56.572Z,6.00
2023-01-12T12:54:56.396Z,4.00
2023-01-12T12:55:56.388Z,5.00
2023-01-12T12:56:56.378Z,4.00
2023-01-12T12:57:56.410Z,10.00
2023-01-12T12:58:56.397Z,7.00
2023-01-12T12:59:56.614Z,5.00
2023-01-12T13:00:56.392Z,10.00
2023-01-12T13:01:56.424Z,6.00
2023-01-12T13:02:56.405Z,4.00
2023-01-12T13:03:56.380Z,5.00
2023-01-12T13:04:56.310Z,4.00
2023-01-12T13:05:56.580Z,4.00
2023-01-12T13:06:56.335Z,4.00
2023-01-12T13:07:56.289Z,4.00
2023-01-12T13:08:56.289Z,3.00
2023-01-12T13:09:56.286Z,6.00
2023-01-12T13:10:56.272Z,3.00
2023-01-12T13:11:56.370Z,5.00
2023-01-12T13:12:56.222Z,8.00
2023-01-12T13:13:56.228Z,9.00
2023-01-12T13:14:56.192Z,6.00
2023-01-12T13:15:56.254Z,5.00
2023-01-12T13:16:56.199Z,7.00
2023-01-12T13:17:56.327Z,7.00